Time;durP1;ratioP1;P1;durP2;ratioP2;P2;SDS_P1;SDS_P2;PMS_P1;PMS_P2;Temp;Humidity;BMP_temperature;BMP_pressure;BME280_temperature;BME280_humidity;BME280_pressure;Samples;Min_cycle;Max_cycle;Signal;HPM_P1;HPM_P2
2023/05/14 00:00:26;;;;;;;;;;;11.70;99.90;;;;;;5042592;28;20387;-71
2023/05/14 00:02:51;;;;;;;;;;;11.70;99.90;;;;;;5042662;28;20278;-71
2023/05/14 00:05:17;;;;;;;;;;;11.70;99.90;;;;;;5047023;28;19931;-70
2023/05/14 00:07:46;;;;;;;;;;;11.70;99.90;;;;;;5053672;28;19929;-70
2023/05/14 00:10:12;;;;;;;;;;;11.70;99.90;;;;;;5040912;28;20395;-70
2023/05/14 00:12:37;;;;;;;;;;;11.70;99.90;;;;;;5047119;28;19924;-70
2023/05/14 00:15:05;;;;;;;;;;;11.70;99.90;;;;;;5045147;28;20449;-71
2023/05/14 00:17:31;;;;;;;;;;;11.60;99.90;;;;;;5038097;28;19964;-70
2023/05/14 00:19:56;;;;;;;;;;;11.70;99.90;;;;;;5029184;28;20506;-70
2023/05/14 00:22:22;;;;;;;;;;;11.70;99.90;;;;;;5047176;28;19933;-71
2023/05/14 00:24:47;;;;;;;;;;;11.60;99.90;;;;;;5041433;28;19925;-71
2023/05/14 00:27:13;;;;;;;;;;;11.50;99.90;;;;;;5043253;28;20584;-71
2023/05/14 00:29:39;;;;;;;;;;;11.70;99.90;;;;;;5044605;28;20410;-71
2023/05/14 00:32:05;;;;;;;;;;;11.60;99.90;;;;;;5040772;28;19936;-71
2023/05/14 00:34:34;;;;;;;;;;;11.50;99.90;;;;;;5037186;28;19976;-71
2023/05/14 00:36:59;;;;;;;;;;;11.50;99.90;;;;;;5044097;28;20026;-71
2023/05/14 00:39:25;;;;;;;;;;;11.40;99.90;;;;;;5043065;28;19932;-71
2023/05/14 00:41:51;;;;;;;;;;;11.40;99.90;;;;;;5045162;28;19928;-71
2023/05/14 00:44:16;;;;;;;;;;;11.30;99.90;;;;;;5045819;28;19925;-71
2023/05/14 00:46:42;;;;;;;;;;;11.40;99.90;;;;;;5049266;28;20409;-71
2023/05/14 00:49:08;;;;;;;;;;;11.30;99.90;;;;;;5040892;28;19932;-71
2023/05/14 00:51:37;;;;;;;;;;;11.30;99.90;;;;;;5042724;28;19966;-71
2023/05/14 00:54:02;;;;;;;;;;;11.30;99.90;;;;;;5045681;28;20045;-70
2023/05/14 00:56:28;;;;;;;;;;;11.30;99.90;;;;;;5056083;28;20137;-71
2023/05/14 00:58:55;;;;;;;;;;;11.20;99.90;;;;;;5061648;28;20197;-70
2023/05/14 01:01:21;;;;;;;;;;;11.20;99.90;;;;;;5062322;28;19972;-70
2023/05/14 01:03:47;;;;;;;;;;;11.20;99.90;;;;;;5060562;28;19940;-71
2023/05/14 01:06:21;;;;;;;;;;;11.10;99.90;;;;;;5060442;28;20410;-70
2023/05/14 01:08:55;;;;;;;;;;;11.20;99.90;;;;;;5058378;28;19932;-70
2023/05/14 01:11:23;;;;;;;;;;;11.10;99.90;;;;;;5059345;28;19924;-69
2023/05/14 01:14:02;;;;;;;;;;;11.10;99.90;;;;;;5060827;28;19931;-70
2023/05/14 01:16:29;;;;;;;;;;;11.10;99.90;;;;;;5046205;28;19924;-71
2023/05/14 01:18:56;;;;;;;;;;;11.10;99.90;;;;;;5060428;28;19931;-71
2023/05/14 01:21:39;;;;;;;;;;;11.10;99.90;;;;;;5062439;28;20070;-71
2023/05/14 01:24:05;;;;;;;;;;;11.00;99.90;;;;;;5059861;28;20432;-71
2023/05/14 01:26:31;;;;;;;;;;;11.00;99.90;;;;;;5048271;28;19969;-71
2023/05/14 01:29:20;;;;;;;;;;;11.00;99.90;;;;;;5065939;28;19932;-70
2023/05/14 01:31:46;;;;;;;;;;;11.00;99.90;;;;;;5049317;28;20056;-71
2023/05/14 01:34:13;;;;;;;;;;;11.00;99.90;;;;;;5046681;28;19960;-70
2023/05/14 01:36:39;;;;;;;;;;;11.00;99.90;;;;;;5067191;28;20014;-70
2023/05/14 01:39:08;;;;;;;;;;;11.00;99.90;;;;;;5060984;28;19925;-70
2023/05/14 01:41:35;;;;;;;;;;;11.00;99.90;;;;;;5057669;28;19936;-69
2023/05/14 01:44:00;;;;;;;;;;;11.00;99.90;;;;;;5067622;28;20381;-70
2023/05/14 01:46:30;;;;;;;;;;;11.10;99.90;;;;;;5064390;28;19925;-70
2023/05/14 01:48:55;;;;;;;;;;;11.10;99.90;;;;;;5062104;28;19924;-70
2023/05/14 01:51:21;;;;;;;;;;;11.10;99.90;;;;;;5063177;28;19924;-70
2023/05/14 01:53:49;;;;;;;;;;;11.10;99.90;;;;;;5059077;28;19940;-70
2023/05/14 01:56:16;;;;;;;;;;;11.10;99.90;;;;;;5063025;28;19927;-70
2023/05/14 01:58:42;;;;;;;;;;;11.10;99.90;;;;;;5045666;28;19924;-71
2023/05/14 02:01:07;;;;;;;;;;;11.10;99.90;;;;;;5060106;28;20271;-69
2023/05/14 02:03:33;;;;;;;;;;;11.10;99.90;;;;;;5064223;28;19932;-70
2023/05/14 02:05:58;;;;;;;;;;;11.00;99.90;;;;;;5055517;28;19925;-70
2023/05/14 02:08:26;;;;;;;;;;;10.90;99.90;;;;;;5050428;28;19935;-71
2023/05/14 02:10:55;;;;;;;;;;;10.90;99.90;;;;;;5058886;28;19939;-70
2023/05/14 02:13:20;;;;;;;;;;;10.80;99.90;;;;;;5070813;28;20015;-70
2023/05/14 02:15:46;;;;;;;;;;;10.80;99.90;;;;;;5060872;28;19924;-70
2023/05/14 02:18:12;;;;;;;;;;;10.80;99.90;;;;;;5069777;28;19929;-70
2023/05/14 02:20:37;;;;;;;;;;;10.80;99.90;;;;;;5058268;28;20375;-70
2023/05/14 02:23:03;;;;;;;;;;;10.80;99.90;;;;;;5061754;28;19940;-70
2023/05/14 02:25:28;;;;;;;;;;;10.70;99.90;;;;;;5059019;28;19924;-70
2023/05/14 02:27:54;;;;;;;;;;;10.70;99.90;;;;;;5063408;28;19929;-70
2023/05/14 02:30:20;;;;;;;;;;;10.70;99.90;;;;;;5059547;28;19924;-70
2023/05/14 02:32:46;;;;;;;;;;;10.70;99.90;;;;;;5059214;28;19952;-71
2023/05/14 02:35:11;;;;;;;;;;;10.70;99.90;;;;;;5040033;28;20418;-70
2023/05/14 02:37:37;;;;;;;;;;;10.70;99.90;;;;;;5063743;28;19925;-70
2023/05/14 02:40:03;;;;;;;;;;;10.70;99.90;;;;;;5064081;28;19924;-70
2023/05/14 02:42:28;;;;;;;;;;;10.70;99.90;;;;;;5064855;28;19935;-70
2023/05/14 02:44:54;;;;;;;;;;;10.70;99.90;;;;;;5064670;28;19924;-70
2023/05/14 02:47:19;;;;;;;;;;;10.80;99.90;;;;;;5059367;28;19924;-70
2023/05/14 02:49:45;;;;;;;;;;;10.80;99.90;;;;;;5061935;28;19924;-70
2023/05/14 02:52:10;;;;;;;;;;;10.80;99.90;;;;;;5063913;28;20200;-70
2023/05/14 02:54:36;;;;;;;;;;;10.70;99.90;;;;;;5063133;28;19939;-70
2023/05/14 02:57:02;;;;;;;;;;;10.80;99.90;;;;;;5062802;28;19928;-69
2023/05/14 02:59:27;;;;;;;;;;;10.70;99.90;;;;;;5060398;28;19932;-70
2023/05/14 03:01:53;;;;;;;;;;;10.80;99.90;;;;;;5061931;28;19933;-70
2023/05/14 03:04:18;;;;;;;;;;;11.10;99.90;;;;;;5065026;28;20119;-70
2023/05/14 03:06:44;;;;;;;;;;;10.70;99.90;;;;;;5062213;28;20323;-70
2023/05/14 03:09:10;;;;;;;;;;;10.60;99.90;;;;;;5065384;28;20386;-70
2023/05/14 03:11:36;;;;;;;;;;;10.70;99.90;;;;;;5060336;28;19952;-70
2023/05/14 03:14:01;;;;;;;;;;;11.60;99.90;;;;;;5065055;28;20378;-70
2023/05/14 03:16:27;;;;;;;;;;;10.70;99.90;;;;;;5044050;28;19925;-70
2023/05/14 03:18:52;;;;;;;;;;;10.60;99.90;;;;;;5066269;28;20008;-70
2023/05/14 03:21:18;;;;;;;;;;;10.60;99.90;;;;;;5068828;28;19935;-70
2023/05/14 03:23:44;;;;;;;;;;;10.70;99.90;;;;;;5063701;28;19963;-70
2023/05/14 03:26:09;;;;;;;;;;;10.60;99.90;;;;;;5060595;28;19979;-69
2023/05/14 03:28:35;;;;;;;;;;;10.60;99.90;;;;;;5065844;28;19928;-70
2023/05/14 03:31:01;;;;;;;;;;;10.70;99.90;;;;;;5068362;28;19928;-71
2023/05/14 03:33:27;;;;;;;;;;;10.60;99.90;;;;;;5074168;28;20389;-71
2023/05/14 03:35:52;;;;;;;;;;;10.60;99.90;;;;;;5052287;28;19924;-70
2023/05/14 03:38:18;;;;;;;;;;;10.60;99.90;;;;;;5059075;28;20293;-70
2023/05/14 03:40:44;;;;;;;;;;;10.70;99.90;;;;;;5063472;28;19990;-70
2023/05/14 03:43:10;;;;;;;;;;;10.60;99.90;;;;;;5052819;28;20382;-71
2023/05/14 03:45:35;;;;;;;;;;;10.70;99.90;;;;;;5068063;28;19924;-71
2023/05/14 03:48:01;;;;;;;;;;;10.80;99.90;;;;;;5073631;28;19925;-71
2023/05/14 03:50:27;;;;;;;;;;;10.80;99.90;;;;;;5065159;28;19932;-71
2023/05/14 03:52:53;;;;;;;;;;;10.80;99.90;;;;;;5065398;28;20019;-70
2023/05/14 03:55:19;;;;;;;;;;;10.90;99.90;;;;;;5063534;28;19933;-71
2023/05/14 03:57:45;;;;;;;;;;;10.90;99.90;;;;;;5066927;28;20328;-71
2023/05/14 04:00:11;;;;;;;;;;;10.90;99.90;;;;;;5059190;28;21346;-72
2023/05/14 04:02:36;;;;;;;;;;;10.90;99.90;;;;;;5064972;28;19925;-71
2023/05/14 04:05:03;;;;;;;;;;;10.80;99.90;;;;;;5070047;28;19924;-71
2023/05/14 04:07:28;;;;;;;;;;;10.90;99.90;;;;;;5043335;28;19928;-71
2023/05/14 04:09:58;;;;;;;;;;;10.90;99.90;;;;;;5067551;28;20053;-72
2023/05/14 04:12:25;;;;;;;;;;;10.90;99.90;;;;;;5068951;28;19929;-71
2023/05/14 04:14:51;;;;;;;;;;;10.80;99.90;;;;;;5068967;28;20027;-72
2023/05/14 04:17:16;;;;;;;;;;;10.80;99.90;;;;;;5061944;28;20011;-72
2023/05/14 04:19:42;;;;;;;;;;;10.70;99.90;;;;;;5069126;28;19936;-72
2023/05/14 04:22:08;;;;;;;;;;;10.80;99.90;;;;;;5065324;28;19932;-73
2023/05/14 04:24:33;;;;;;;;;;;10.80;99.90;;;;;;5058899;28;19932;-70
2023/05/14 04:26:59;;;;;;;;;;;10.80;99.90;;;;;;5050330;28;20362;-71
2023/05/14 04:29:25;;;;;;;;;;;10.80;99.90;;;;;;5055012;28;19978;-71
2023/05/14 04:31:51;;;;;;;;;;;10.80;99.90;;;;;;5060605;28;19929;-71
2023/05/14 04:34:16;;;;;;;;;;;10.80;99.90;;;;;;5048566;28;19925;-71
2023/05/14 04:36:42;;;;;;;;;;;10.80;99.90;;;;;;5063550;28;20370;-70
2023/05/14 04:39:11;;;;;;;;;;;10.90;99.90;;;;;;5068131;28;20459;-70
2023/05/14 04:41:36;;;;;;;;;;;10.90;99.90;;;;;;5060173;28;19940;-70
2023/05/14 04:44:02;;;;;;;;;;;10.90;99.90;;;;;;5063206;28;19924;-71
2023/05/14 04:46:28;;;;;;;;;;;10.90;99.90;;;;;;5040209;28;19950;-71
2023/05/14 04:48:55;;;;;;;;;;;11.00;99.90;;;;;;5058454;28;19928;-70
2023/05/14 04:51:21;;;;;;;;;;;11.00;99.90;;;;;;5059743;28;19932;-70
2023/05/14 04:53:46;;;;;;;;;;;11.10;99.90;;;;;;5056557;28;19943;-70
2023/05/14 04:56:12;;;;;;;;;;;11.10;99.90;;;;;;5057669;28;20428;-70
2023/05/14 04:58:37;;;;;;;;;;;11.20;99.90;;;;;;5060840;28;19933;-70
2023/05/14 05:01:03;;;;;;;;;;;11.20;99.90;;;;;;5059132;28;19940;-70
2023/05/14 05:03:30;;;;;;;;;;;11.20;99.90;;;;;;5061491;28;20046;-70
2023/05/14 05:05:55;;;;;;;;;;;11.30;99.90;;;;;;5056669;28;19936;-70
2023/05/14 05:08:21;;;;;;;;;;;11.30;99.90;;;;;;5040819;28;20366;-70
2023/05/14 05:10:49;;;;;;;;;;;11.30;99.90;;;;;;5057260;28;19924;-70
2023/05/14 05:13:15;;;;;;;;;;;11.40;99.90;;;;;;5041037;28;19932;-70
2023/05/14 05:15:41;;;;;;;;;;;11.40;99.90;;;;;;5057890;28;19924;-71
2023/05/14 05:18:08;;;;;;;;;;;11.40;99.90;;;;;;5046177;28;19924;-71
2023/05/14 05:20:33;;;;;;;;;;;11.50;99.90;;;;;;5058238;28;19932;-71
2023/05/14 05:22:59;;;;;;;;;;;11.50;99.90;;;;;;5041786;28;19930;-71
2023/05/14 05:25:26;;;;;;;;;;;11.50;99.90;;;;;;5059660;28;19925;-72
2023/05/14 05:27:51;;;;;;;;;;;11.60;99.90;;;;;;5035509;28;19924;-71
2023/05/14 05:30:17;;;;;;;;;;;11.70;99.90;;;;;;5062833;28;19931;-71
2023/05/14 05:32:42;;;;;;;;;;;11.80;99.90;;;;;;5068730;28;19972;-71
2023/05/14 05:35:08;;;;;;;;;;;11.90;99.90;;;;;;5061073;28;20020;-71
2023/05/14 05:37:34;;;;;;;;;;;12.00;99.90;;;;;;5063558;28;20393;-70
2023/05/14 05:39:59;;;;;;;;;;;12.00;99.90;;;;;;5060147;28;19993;-71
2023/05/14 05:42:25;;;;;;;;;;;12.10;99.90;;;;;;5060973;28;19924;-71
2023/05/14 05:44:51;;;;;;;;;;;12.20;99.90;;;;;;5059966;28;20396;-71
2023/05/14 05:47:16;;;;;;;;;;;12.20;99.90;;;;;;5042544;28;19930;-70
2023/05/14 05:49:42;;;;;;;;;;;12.30;99.90;;;;;;5063332;28;19924;-71
2023/05/14 05:52:07;;;;;;;;;;;12.40;99.90;;;;;;5057348;28;19979;-71
2023/05/14 05:54:33;;;;;;;;;;;12.50;99.90;;;;;;5065941;28;19932;-70
2023/05/14 05:56:58;;;;;;;;;;;12.50;99.90;;;;;;5062305;28;19972;-71
2023/05/14 05:59:24;;;;;;;;;;;12.60;99.90;;;;;;5050951;28;19968;-70
2023/05/14 06:01:50;;;;;;;;;;;12.80;99.90;;;;;;5070135;28;20316;-70
2023/05/14 06:04:15;;;;;;;;;;;12.90;99.90;;;;;;5027921;28;19966;-70
2023/05/14 06:06:41;;;;;;;;;;;13.00;99.90;;;;;;5059658;28;20386;-70
2023/05/14 06:09:07;;;;;;;;;;;13.10;99.90;;;;;;5064603;28;19952;-71
2023/05/14 06:11:33;;;;;;;;;;;13.30;99.90;;;;;;5059975;28;20569;-70
2023/05/14 06:13:59;;;;;;;;;;;13.40;99.90;;;;;;5055631;28;20007;-71
2023/05/14 06:16:24;;;;;;;;;;;13.50;99.90;;;;;;5040216;28;19924;-71
2023/05/14 06:18:51;;;;;;;;;;;13.60;99.90;;;;;;5065135;28;19924;-70
2023/05/14 06:21:17;;;;;;;;;;;13.60;99.90;;;;;;5072156;28;19967;-71
2023/05/14 06:23:43;;;;;;;;;;;13.90;99.90;;;;;;5066905;28;19969;-70
2023/05/14 06:26:08;;;;;;;;;;;14.00;99.90;;;;;;5061320;28;19932;-69
2023/05/14 06:28:34;;;;;;;;;;;14.10;99.90;;;;;;5058991;28;19925;-70
2023/05/14 06:31:00;;;;;;;;;;;14.20;99.90;;;;;;5064220;28;19975;-70
2023/05/14 06:33:29;;;;;;;;;;;14.30;99.90;;;;;;5063022;28;20331;-70
2023/05/14 06:36:03;;;;;;;;;;;14.40;99.90;;;;;;5045659;28;19928;-69
2023/05/14 06:38:28;;;;;;;;;;;14.40;99.90;;;;;;5046022;28;19928;-69
2023/05/14 06:40:54;;;;;;;;;;;14.60;99.90;;;;;;5059629;28;20331;-69
2023/05/14 06:43:20;;;;;;;;;;;14.60;99.90;;;;;;5043167;28;19978;-70
2023/05/14 06:45:49;;;;;;;;;;;14.70;99.90;;;;;;5065154;28;20371;-70
2023/05/14 06:48:17;;;;;;;;;;;14.70;99.90;;;;;;5045214;28;19932;-70
2023/05/14 06:50:44;;;;;;;;;;;14.80;99.90;;;;;;5046217;28;19932;-70
2023/05/14 06:53:09;;;;;;;;;;;14.90;99.90;;;;;;5045375;28;19925;-70
2023/05/14 06:55:35;;;;;;;;;;;14.90;99.90;;;;;;5044051;28;19931;-70
2023/05/14 06:58:00;;;;;;;;;;;14.90;99.90;;;;;;5060450;28;20559;-70
2023/05/14 07:00:26;;;;;;;;;;;15.00;99.90;;;;;;5062156;28;19932;-70
2023/05/14 07:02:55;;;;;;;;;;;15.10;99.90;;;;;;5067194;28;19951;-70
2023/05/14 07:05:23;;;;;;;;;;;15.00;99.90;;;;;;5061263;28;21809;-70
2023/05/14 07:07:49;;;;;;;;;;;15.20;99.90;;;;;;5046211;28;20301;-71
2023/05/14 07:10:17;;;;;;;;;;;15.10;99.90;;;;;;5061969;28;20379;-70
2023/05/14 07:12:44;;;;;;;;;;;15.20;99.90;;;;;;5066636;28;19928;-70
2023/05/14 07:15:11;;;;;;;;;;;15.30;99.90;;;;;;5061997;28;20026;-70
2023/05/14 07:17:36;;;;;;;;;;;15.40;99.90;;;;;;5062919;28;19929;-70
2023/05/14 07:20:02;;;;;;;;;;;15.50;99.90;;;;;;5062720;28;19986;-70
2023/05/14 07:22:27;;;;;;;;;;;15.50;99.90;;;;;;5069202;28;19974;-70
2023/05/14 07:24:53;;;;;;;;;;;15.50;99.90;;;;;;5063902;28;20329;-70
2023/05/14 07:27:18;;;;;;;;;;;15.50;99.90;;;;;;5070950;28;20028;-70
2023/05/14 07:29:44;;;;;;;;;;;15.60;99.90;;;;;;5060334;28;19925;-70
2023/05/14 07:32:09;;;;;;;;;;;15.70;99.90;;;;;;5062279;28;20352;-70
2023/05/14 07:34:38;;;;;;;;;;;15.80;99.90;;;;;;5068458;28;19932;-70
2023/05/14 07:37:03;;;;;;;;;;;15.80;99.90;;;;;;5063866;28;19931;-71
2023/05/14 07:39:29;;;;;;;;;;;15.80;99.90;;;;;;5063970;28;20437;-71
2023/05/14 07:41:54;;;;;;;;;;;15.90;99.90;;;;;;5061745;28;20402;-71
2023/05/14 07:44:20;;;;;;;;;;;15.80;99.90;;;;;;5043155;28;19928;-70
2023/05/14 07:46:46;;;;;;;;;;;15.80;99.90;;;;;;5059942;28;19928;-70
2023/05/14 07:49:11;;;;;;;;;;;15.70;99.90;;;;;;5058402;28;19997;-70
2023/05/14 07:51:37;;;;;;;;;;;15.70;99.90;;;;;;5061294;28;20431;-72
2023/05/14 07:54:03;;;;;;;;;;;15.70;99.90;;;;;;5069097;28;19932;-71
2023/05/14 07:56:29;;;;;;;;;;;15.70;99.90;;;;;;5060197;28;20602;-71
2023/05/14 07:58:55;;;;;;;;;;;15.70;99.90;;;;;;5060890;28;19925;-71
2023/05/14 08:01:24;;;;;;;;;;;15.60;99.90;;;;;;5023785;28;20012;-72
2023/05/14 08:03:49;;;;;;;;;;;15.60;99.90;;;;;;5067552;28;20025;-71
2023/05/14 08:06:15;;;;;;;;;;;15.50;99.90;;;;;;5034625;28;19987;-71
2023/05/14 08:08:40;;;;;;;;;;;15.50;99.90;;;;;;5065819;28;19931;-71
2023/05/14 08:11:06;;;;;;;;;;;15.50;99.90;;;;;;5021945;28;19951;-72
2023/05/14 08:13:32;;;;;;;;;;;15.60;99.90;;;;;;5068202;28;20378;-71
2023/05/14 08:15:57;;;;;;;;;;;15.80;99.90;;;;;;5069287;28;20298;-69
2023/05/14 08:18:23;;;;;;;;;;;15.90;99.90;;;;;;5065378;28;20018;-69
2023/05/14 08:20:48;;;;;;;;;;;16.10;99.90;;;;;;5039009;28;20400;-70
2023/05/14 08:23:14;;;;;;;;;;;16.30;99.90;;;;;;5066700;28;19925;-72
2023/05/14 08:25:39;;;;;;;;;;;16.40;99.90;;;;;;5049938;28;19924;-69
2023/05/14 08:28:06;;;;;;;;;;;16.40;99.90;;;;;;5066251;28;19925;-69
2023/05/14 08:30:31;;;;;;;;;;;16.50;99.90;;;;;;5063152;28;19933;-70
2023/05/14 08:32:57;;;;;;;;;;;16.60;99.90;;;;;;5059564;28;19978;-71
2023/05/14 08:35:23;;;;;;;;;;;16.60;99.90;;;;;;5050430;28;19925;-70
2023/05/14 08:37:49;;;;;;;;;;;16.80;99.90;;;;;;5059574;28;19924;-71
2023/05/14 08:40:14;;;;;;;;;;;16.80;99.90;;;;;;5060332;28;20609;-70
2023/05/14 08:42:40;;;;;;;;;;;16.90;99.90;;;;;;5066996;28;19924;-70
2023/05/14 08:45:10;;;;;;;;;;;17.00;99.90;;;;;;5055657;28;19999;-70
2023/05/14 08:47:36;;;;;;;;;;;17.00;99.90;;;;;;5060100;28;19932;-69
2023/05/14 08:50:05;;;;;;;;;;;16.90;99.90;;;;;;5065130;28;20279;-70
2023/05/14 08:52:31;;;;;;;;;;;16.90;99.90;;;;;;5069365;28;19970;-69
2023/05/14 08:55:01;;;;;;;;;;;16.90;99.90;;;;;;5066482;28;20363;-70
2023/05/14 08:57:28;;;;;;;;;;;17.00;99.90;;;;;;5068360;28;19932;-69
2023/05/14 08:59:54;;;;;;;;;;;17.00;99.90;;;;;;5068624;28;19950;-71
2023/05/14 09:02:22;;;;;;;;;;;17.20;99.90;;;;;;5062043;28;19924;-70
2023/05/14 09:04:52;;;;;;;;;;;17.40;99.90;;;;;;5035289;28;19925;-70
2023/05/14 09:07:18;;;;;;;;;;;17.30;99.90;;;;;;5057783;28;19968;-70
2023/05/14 09:09:44;;;;;;;;;;;17.30;99.90;;;;;;5059321;28;19972;-70
2023/05/14 09:12:10;;;;;;;;;;;17.40;99.90;;;;;;5052238;28;19932;-71
2023/05/14 09:14:35;;;;;;;;;;;17.50;99.90;;;;;;5067923;28;19925;-69
2023/05/14 09:17:01;;;;;;;;;;;17.40;99.90;;;;;;5055255;28;19932;-69
2023/05/14 09:19:27;;;;;;;;;;;17.40;99.90;;;;;;5064155;28;19924;-69
2023/05/14 09:21:55;;;;;;;;;;;17.50;99.90;;;;;;5064889;28;19931;-71
2023/05/14 09:24:21;;;;;;;;;;;17.50;99.90;;;;;;5072046;28;20007;-69
2023/05/14 09:26:51;;;;;;;;;;;17.60;99.90;;;;;;5062788;28;19929;-70
2023/05/14 09:29:17;;;;;;;;;;;17.80;99.90;;;;;;5054616;28;20382;-70
2023/05/14 09:31:42;;;;;;;;;;;17.80;99.90;;;;;;5067943;28;20015;-69
2023/05/14 09:34:08;;;;;;;;;;;17.80;99.90;;;;;;5058993;28;20015;-70
2023/05/14 09:36:33;;;;;;;;;;;17.90;99.90;;;;;;5060358;28;20363;-71
2023/05/14 09:38:59;;;;;;;;;;;18.00;99.90;;;;;;5061687;28;19977;-70
2023/05/14 09:41:25;;;;;;;;;;;18.10;99.90;;;;;;5041741;28;19925;-69
2023/05/14 09:43:50;;;;;;;;;;;18.20;99.90;;;;;;5059301;28;20345;-70
2023/05/14 09:46:16;;;;;;;;;;;18.40;99.90;;;;;;5059989;28;19924;-70
2023/05/14 09:48:42;;;;;;;;;;;18.50;99.90;;;;;;5062046;28;19931;-70
2023/05/14 09:51:11;;;;;;;;;;;18.70;99.90;;;;;;5063045;28;19924;-69
2023/05/14 09:53:37;;;;;;;;;;;18.90;99.90;;;;;;5063869;28;19931;-70
2023/05/14 09:56:03;;;;;;;;;;;18.90;99.90;;;;;;5057015;28;20004;-69
2023/05/14 09:58:28;;;;;;;;;;;19.00;99.90;;;;;;5060764;28;20307;-70
2023/05/14 10:00:56;;;;;;;;;;;19.00;99.90;;;;;;5069797;28;20016;-71
2023/05/14 10:03:23;;;;;;;;;;;19.20;99.90;;;;;;5068532;28;19928;-70
2023/05/14 10:05:50;;;;;;;;;;;19.40;99.90;;;;;;5065494;28;19951;-69
2023/05/14 10:08:21;;;;;;;;;;;19.70;99.90;;;;;;5060893;28;20370;-71
2023/05/14 10:10:49;;;;;;;;;;;20.00;99.90;;;;;;5072517;28;19978;-71
2023/05/14 10:13:19;;;;;;;;;;;20.20;99.90;;;;;;5069951;28;20374;-71
2023/05/14 10:15:53;;;;;;;;;;;20.10;99.90;;;;;;5064202;28;19969;-69
2023/05/14 10:18:21;;;;;;;;;;;20.00;99.90;;;;;;5049455;28;19951;-70
2023/05/14 10:21:01;;;;;;;;;;;20.10;99.90;;;;;;5065073;28;19928;-70
2023/05/14 10:23:27;;;;;;;;;;;19.90;99.90;;;;;;5067392;28;19925;-71
2023/05/14 10:25:52;;;;;;;;;;;19.80;99.90;;;;;;5077613;28;19925;-70
2023/05/14 10:28:18;;;;;;;;;;;19.80;99.90;;;;;;5046894;28;19948;-69
2023/05/14 10:30:45;;;;;;;;;;;19.80;99.90;;;;;;5043269;28;19999;-71
2023/05/14 10:33:12;;;;;;;;;;;19.90;99.90;;;;;;5063106;28;20023;-70
2023/05/14 10:35:50;;;;;;;;;;;19.90;99.90;;;;;;5060059;28;19924;-70
2023/05/14 10:38:15;;;;;;;;;;;19.80;99.90;;;;;;5043380;28;19925;-70
2023/05/14 10:40:41;;;;;;;;;;;19.80;99.90;;;;;;5062717;28;19925;-70
2023/05/14 10:43:10;;;;;;;;;;;20.00;99.90;;;;;;5049532;28;19933;-69
2023/05/14 10:45:35;;;;;;;;;;;20.10;99.90;;;;;;5055994;28;19924;-71
2023/05/14 10:48:01;;;;;;;;;;;20.20;99.90;;;;;;5056807;28;21187;-69
2023/05/14 10:50:27;;;;;;;;;;;20.50;99.90;;;;;;5058988;28;20362;-69
2023/05/14 10:52:54;;;;;;;;;;;20.70;99.90;;;;;;5057889;28;19925;-70
2023/05/14 10:55:20;;;;;;;;;;;21.10;99.90;;;;;;5034874;28;19928;-69
2023/05/14 10:57:45;;;;;;;;;;;21.40;99.90;;;;;;5053643;28;19925;-69
2023/05/14 11:00:11;;;;;;;;;;;21.70;99.90;;;;;;5049503;28;20389;-68
2023/05/14 11:02:38;;;;;;;;;;;22.00;99.90;;;;;;5037873;28;19929;-68
2023/05/14 11:05:04;;;;;;;;;;;22.20;99.90;;;;;;5044606;28;19959;-68
2023/05/14 11:07:34;;;;;;;;;;;22.30;99.90;;;;;;5049221;28;20015;-68
2023/05/14 11:10:00;;;;;;;;;;;22.40;99.90;;;;;;5044329;28;19925;-68
2023/05/14 11:12:27;;;;;;;;;;;22.60;99.90;;;;;;5050695;28;20030;-68
2023/05/14 11:14:53;;;;;;;;;;;22.60;99.90;;;;;;5045626;28;20321;-70
2023/05/14 11:17:18;;;;;;;;;;;22.80;99.90;;;;;;5043588;28;19929;-69
2023/05/14 11:19:44;;;;;;;;;;;23.00;99.90;;;;;;5045686;28;19933;-69
2023/05/14 11:22:12;;;;;;;;;;;23.20;99.50;;;;;;5053152;28;19925;-69
2023/05/14 11:24:38;;;;;;;;;;;23.30;99.90;;;;;;5040952;28;19971;-69
2023/05/14 11:27:04;;;;;;;;;;;23.50;98.80;;;;;;5047898;28;19940;-68
2023/05/14 11:29:29;;;;;;;;;;;23.50;99.80;;;;;;5052218;28;19925;-69
2023/05/14 11:31:55;;;;;;;;;;;23.40;98.80;;;;;;5044275;28;19995;-68
2023/05/14 11:34:21;;;;;;;;;;;23.30;97.60;;;;;;5045990;28;20015;-69
2023/05/14 11:36:47;;;;;;;;;;;23.10;97.00;;;;;;5043229;28;20004;-69
2023/05/14 11:39:16;;;;;;;;;;;22.90;97.20;;;;;;5048333;28;19987;-69
2023/05/14 11:41:43;;;;;;;;;;;22.80;98.50;;;;;;5048583;28;19955;-69
2023/05/14 11:44:09;;;;;;;;;;;22.70;98.40;;;;;;5044697;28;19925;-69
2023/05/14 11:46:35;;;;;;;;;;;22.60;98.70;;;;;;5044754;28;19960;-70
2023/05/14 11:49:03;;;;;;;;;;;22.50;98.50;;;;;;5044393;28;20413;-70
2023/05/14 11:51:28;;;;;;;;;;;22.50;98.70;;;;;;5043214;28;19936;-69
2023/05/14 11:53:54;;;;;;;;;;;22.60;98.70;;;;;;5045542;28;19945;-70
2023/05/14 11:56:21;;;;;;;;;;;22.80;98.50;;;;;;5063022;28;19921;-70
2023/05/14 11:58:47;;;;;;;;;;;23.00;98.40;;;;;;5066946;28;19924;-69
2023/05/14 12:01:14;;;;;;;;;;;23.10;96.30;;;;;;5072345;28;19928;-69
2023/05/14 12:03:39;;;;;;;;;;;23.30;96.40;;;;;;5061305;28;19977;-69
2023/05/14 12:06:06;;;;;;;;;;;23.50;95.30;;;;;;5065587;28;20027;-69
2023/05/14 12:08:32;;;;;;;;;;;23.60;93.60;;;;;;5033351;28;19924;-71
2023/05/14 12:10:58;;;;;;;;;;;23.40;93.00;;;;;;5063825;28;19925;-70
2023/05/14 12:13:31;;;;;;;;;;;23.30;92.30;;;;;;5069199;28;19928;-70
2023/05/14 12:15:58;;;;;;;;;;;23.00;91.20;;;;;;5053895;28;19947;-69
2023/05/14 12:18:24;;;;;;;;;;;22.80;88.30;;;;;;5065326;28;19932;-68
2023/05/14 12:20:50;;;;;;;;;;;22.60;90.30;;;;;;5071026;28;19932;-69
2023/05/14 12:23:16;;;;;;;;;;;22.60;89.90;;;;;;5050378;28;20255;-69
2023/05/14 12:25:48;;;;;;;;;;;22.70;81.40;;;;;;5040820;28;19932;-69
2023/05/14 12:28:14;;;;;;;;;;;22.60;80.20;;;;;;5067573;28;19929;-70
2023/05/14 12:30:40;;;;;;;;;;;22.50;81.00;;;;;;5065798;28;20000;-68
2023/05/14 12:33:05;;;;;;;;;;;22.50;82.30;;;;;;5072941;28;19974;-70
2023/05/14 12:35:31;;;;;;;;;;;22.50;81.10;;;;;;5068099;28;20374;-68
2023/05/14 12:37:57;;;;;;;;;;;22.60;83.40;;;;;;5071801;28;20031;-69
2023/05/14 12:40:22;;;;;;;;;;;22.70;78.70;;;;;;5066150;28;20345;-69
2023/05/14 12:42:48;;;;;;;;;;;22.60;80.10;;;;;;5071531;28;19946;-69
2023/05/14 12:45:13;;;;;;;;;;;22.50;78.70;;;;;;5053966;28;19925;-69
2023/05/14 12:47:39;;;;;;;;;;;22.40;78.50;;;;;;5062154;28;20028;-69
2023/05/14 12:50:05;;;;;;;;;;;22.50;79.20;;;;;;5050918;28;19971;-68
2023/05/14 12:52:30;;;;;;;;;;;22.50;81.10;;;;;;5040942;28;20408;-69
2023/05/14 12:54:57;;;;;;;;;;;22.70;84.10;;;;;;5063483;28;19980;-69
2023/05/14 12:57:22;;;;;;;;;;;22.70;80.30;;;;;;5067022;28;20018;-70
2023/05/14 12:59:47;;;;;;;;;;;22.80;82.50;;;;;;5068889;28;20016;-70
2023/05/14 13:02:17;;;;;;;;;;;22.70;79.70;;;;;;5053272;28;20330;-70
2023/05/14 13:04:43;;;;;;;;;;;22.80;77.70;;;;;;5071878;28;19928;-68
2023/05/14 13:07:08;;;;;;;;;;;22.90;81.60;;;;;;5063911;28;19970;-69
2023/05/14 13:09:34;;;;;;;;;;;23.10;77.30;;;;;;5072185;28;20077;-69
2023/05/14 13:11:59;;;;;;;;;;;23.10;77.10;;;;;;5068289;28;19960;-70
2023/05/14 13:14:25;;;;;;;;;;;22.90;77.30;;;;;;5062503;28;19936;-70
2023/05/14 13:16:51;;;;;;;;;;;22.80;76.60;;;;;;5070022;28;20019;-70
2023/05/14 13:19:16;;;;;;;;;;;22.70;76.20;;;;;;5043760;28;20019;-71
2023/05/14 13:21:42;;;;;;;;;;;22.90;74.90;;;;;;5069393;28;20026;-68
2023/05/14 13:24:08;;;;;;;;;;;22.60;74.00;;;;;;5052503;28;20397;-70
2023/05/14 13:26:35;;;;;;;;;;;22.60;77.20;;;;;;5076953;28;19924;-70
2023/05/14 13:29:01;;;;;;;;;;;22.80;77.90;;;;;;5067597;28;20051;-70
2023/05/14 13:31:27;;;;;;;;;;;23.00;82.90;;;;;;5053507;28;20007;-69
2023/05/14 13:33:52;;;;;;;;;;;23.10;86.20;;;;;;5063194;28;19925;-69
2023/05/14 13:36:18;;;;;;;;;;;23.20;90.00;;;;;;5070224;28;20007;-69
2023/05/14 13:38:44;;;;;;;;;;;23.10;90.60;;;;;;5061625;28;19936;-69
2023/05/14 13:41:10;;;;;;;;;;;23.10;92.20;;;;;;5063160;28;19936;-69
2023/05/14 13:43:36;;;;;;;;;;;23.20;94.90;;;;;;5063501;28;20034;-70
2023/05/14 13:46:03;;;;;;;;;;;23.20;93.90;;;;;;5056517;28;20291;-69
2023/05/14 13:48:29;;;;;;;;;;;22.90;94.90;;;;;;5070070;28;19924;-69
2023/05/14 13:50:55;;;;;;;;;;;22.80;96.30;;;;;;5075531;28;20271;-70
2023/05/14 13:53:21;;;;;;;;;;;22.60;97.30;;;;;;5048431;28;19932;-70
2023/05/14 13:55:47;;;;;;;;;;;22.60;97.50;;;;;;5068063;28;20003;-69
2023/05/14 13:58:13;;;;;;;;;;;22.40;98.60;;;;;;5066952;28;20360;-69
2023/05/14 14:00:39;;;;;;;;;;;22.50;99.40;;;;;;5070502;28;19924;-70
2023/05/14 14:03:05;;;;;;;;;;;22.40;99.90;;;;;;5068091;28;19995;-70
2023/05/14 14:05:31;;;;;;;;;;;22.40;99.90;;;;;;5066309;28;19925;-71
2023/05/14 14:07:56;;;;;;;;;;;22.50;99.60;;;;;;5062027;28;20022;-71
2023/05/14 14:10:22;;;;;;;;;;;22.50;99.90;;;;;;5049192;28;19925;-70